createdAt,value
2023-04-04T00:03:18.220Z,102196.50
2023-04-04T00:08:41.074Z,102192.12
2023-04-04T00:14:03.795Z,102185.09
2023-04-04T00:19:26.402Z,102178.92
2023-04-04T00:24:49.260Z,102176.27
2023-04-04T00:30:12.683Z,102165.66
2023-04-04T00:35:35.002Z,102162.11
2023-04-04T00:41:03.052Z,102154.12
2023-04-04T00:46:27.482Z,102147.02
2023-04-04T00:51:49.875Z,102147.84
2023-04-04T00:57:14.126Z,102147.83
2023-04-04T01:02:37.320Z,102145.16
2023-04-04T01:08:00.297Z,102146.89
2023-04-04T01:13:22.924Z,102143.30
2023-04-04T01:18:47.097Z,102131.86
2023-04-04T01:24:12.852Z,102125.72
2023-04-04T01:29:35.237Z,102123.94
2023-04-04T01:35:24.718Z,102113.38
2023-04-04T01:40:52.177Z,102123.88
2023-04-04T01:46:15.083Z,102113.23
2023-04-04T01:51:39.136Z,102106.23
2023-04-04T01:57:02.537Z,102100.95
2023-04-04T02:02:24.881Z,102097.44
2023-04-04T02:07:47.521Z,102093.94
2023-04-04T02:13:11.690Z,102085.11
2023-04-04T02:18:34.657Z,102081.59
2023-04-04T02:23:57.044Z,102085.13
2023-04-04T02:29:20.108Z,102078.95
2023-04-04T02:34:42.931Z,102078.06
2023-04-04T02:40:05.834Z,102070.16
2023-04-04T02:45:29.276Z,102070.16
2023-04-04T02:50:52.789Z,102069.27
2023-04-04T02:56:15.602Z,102071.02
2023-04-04T03:01:38.435Z,102065.73
2023-04-04T03:07:01.176Z,102057.82
2023-04-04T03:12:26.129Z,102048.07
2023-04-04T03:17:48.391Z,102056.87
2023-04-04T03:23:10.721Z,102059.53
2023-04-04T03:28:32.999Z,102057.82
2023-04-04T03:33:56.047Z,102047.28
2023-04-04T03:39:18.377Z,102049.09
2023-04-04T03:44:40.689Z,102047.37
2023-04-04T03:50:04.178Z,102048.25
2023-04-04T03:55:26.656Z,102047.42
2023-04-04T04:00:48.952Z,102043.06
2023-04-04T04:06:13.225Z,102048.38
2023-04-04T04:11:35.494Z,102053.63
2023-04-04T04:17:00.822Z,102057.12
2023-04-04T04:22:23.071Z,102052.71
2023-04-04T04:27:46.541Z,102047.42
2023-04-04T04:33:09.403Z,102043.86
2023-04-04T04:38:31.668Z,102046.47
2023-04-04T04:43:53.915Z,102038.61
2023-04-04T04:49:16.208Z,102035.16
2023-04-04T04:54:38.585Z,102030.76
2023-04-04T05:00:01.605Z,102037.74
2023-04-04T05:05:24.097Z,102033.30
2023-04-04T05:10:46.502Z,102038.54
2023-04-04T05:16:09.036Z,102029.73
2023-04-04T05:21:31.368Z,102027.92
2023-04-04T05:26:53.656Z,102028.75
2023-04-04T05:32:16.404Z,102026.87
2023-04-04T05:37:38.680Z,102026.81
2023-04-04T05:43:08.623Z,102034.70
2023-04-04T05:48:31.457Z,102035.55
2023-04-04T05:53:53.788Z,102040.81
2023-04-04T05:59:16.939Z,102045.24
2023-04-04T06:04:41.033Z,102054.91
2023-04-04T06:10:03.570Z,102046.25
2023-04-04T06:15:26.692Z,102048.14
2023-04-04T06:20:49.037Z,102041.08
2023-04-04T06:26:13.236Z,102041.00
2023-04-04T06:31:36.065Z,102032.19
2023-04-04T06:36:58.372Z,102038.21
2023-04-04T06:42:20.787Z,102047.80
2023-04-04T06:47:43.065Z,102036.39
2023-04-04T06:53:06.947Z,102042.35
2023-04-04T06:58:29.276Z,102030.73
2023-04-04T07:03:51.687Z,102018.10
2023-04-04T07:09:25.940Z,102013.89
2023-04-04T07:14:38.627Z,102019.82
2023-04-04T07:20:02.923Z,102025.26
2023-04-04T07:25:28.516Z,102021.39
2023-04-04T07:30:50.786Z,102025.44
2023-04-04T07:36:15.846Z,102025.85
2023-04-04T07:41:38.350Z,102035.95
2023-04-04T07:47:09.437Z,102025.82
2023-04-04T07:52:24.522Z,102019.41
2023-04-04T07:57:48.961Z,102009.37
2023-04-04T08:03:15.418Z,102017.84
2023-04-04T08:08:38.072Z,102009.63
2023-04-04T08:14:00.692Z,102009.47
2023-04-04T08:19:23.544Z,102003.23
2023-04-04T08:24:46.856Z,101996.09
2023-04-04T08:30:09.542Z,101992.33
2023-04-04T08:35:32.552Z,101992.45
2023-04-04T08:40:56.847Z,101993.41
2023-04-04T08:46:21.120Z,101984.52
2023-04-04T08:51:46.022Z,101981.14
2023-04-04T08:57:08.635Z,101977.15
2023-04-04T09:02:38.933Z,101964.09
2023-04-04T09:08:04.200Z,101942.22
2023-04-04T09:13:26.710Z,101950.82
2023-04-04T09:18:49.585Z,101946.13
2023-04-04T09:24:23.073Z,101946.32
2023-04-04T09:29:47.499Z,101942.08
2023-04-04T09:35:11.054Z,101947.82
2023-04-04T09:40:36.690Z,101933.89
2023-04-04T09:46:01.557Z,101940.08
2023-04-04T09:51:26.120Z,101945.20
2023-04-04T09:56:49.661Z,101949.50
2023-04-04T10:02:16.778Z,101947.61
2023-04-04T10:07:42.577Z,101946.95
2023-04-04T10:13:05.148Z,101943.64
2023-04-04T10:18:29.031Z,101955.89
2023-04-04T10:23:53.397Z,101950.47
2023-04-04T10:29:15.691Z,101938.33
2023-04-04T10:34:51.913Z,101934.89
2023-04-04T10:40:23.485Z,101941.03
2023-04-04T10:45:47.008Z,101938.46
2023-04-04T10:51:11.348Z,101937.38
2023-04-04T10:56:34.958Z,101942.60
2023-04-04T11:02:11.860Z,101937.80
2023-04-04T11:07:40.708Z,101921.51
2023-04-04T11:13:13.362Z,101910.36
2023-04-04T11:18:37.822Z,101901.06
2023-04-04T11:24:14.019Z,101900.73
2023-04-04T11:29:53.820Z,101900.87
2023-04-04T11:35:27.330Z,101883.94
2023-04-04T11:41:09.061Z,101877.41
2023-04-04T11:46:34.588Z,101872.14
2023-04-04T11:51:59.208Z,101873.50
2023-04-04T11:57:24.042Z,101870.99
2023-04-04T12:02:47.880Z,101871.80
2023-04-04T12:08:11.026Z,101858.52
2023-04-04T12:13:35.966Z,101868.33
2023-04-04T12:18:58.586Z,101867.48
2023-04-04T12:24:21.598Z,101857.86
2023-04-04T12:29:47.803Z,101854.72
2023-04-04T12:35:16.168Z,101844.45
2023-04-04T12:40:45.154Z,101828.66
2023-04-04T12:46:14.300Z,101808.56
2023-04-04T12:51:38.979Z,101797.00
2023-04-04T12:57:04.366Z,101787.16
2023-04-04T13:02:30.179Z,101786.88
2023-04-04T13:07:54.757Z,101778.44
2023-04-04T13:13:21.873Z,101782.02
2023-04-04T13:18:49.408Z,101775.67
2023-04-04T13:24:12.045Z,101772.61
2023-04-04T13:29:34.368Z,101760.84
2023-04-04T13:34:56.718Z,101756.10
2023-04-04T13:40:20.080Z,101752.22
2023-04-04T13:45:46.307Z,101741.68
2023-04-04T13:51:08.844Z,101744.36
2023-04-04T13:56:31.987Z,101725.45
2023-04-04T14:01:55.098Z,101732.78
2023-04-04T14:07:18.122Z,101721.77
2023-04-04T14:12:41.146Z,101721.58
2023-04-04T14:18:03.963Z,101702.22
2023-04-04T14:23:26.758Z,101721.78
2023-04-04T14:28:49.121Z,101725.73
2023-04-04T14:34:14.629Z,101710.53
2023-04-04T14:39:45.255Z,101707.67
2023-04-04T14:45:08.056Z,101705.48
2023-04-04T14:50:30.900Z,101695.80
2023-04-04T14:55:53.873Z,101697.30
2023-04-04T15:01:16.409Z,101694.77
2023-04-04T15:06:39.676Z,101690.95
2023-04-04T15:12:02.911Z,101701.11
2023-04-04T15:17:25.830Z,101685.19
2023-04-04T15:22:48.349Z,101690.31
2023-04-04T15:28:10.643Z,101678.67
2023-04-04T15:33:33.260Z,101686.79
2023-04-04T15:38:56.136Z,101672.48
2023-04-04T15:44:19.098Z,101679.92
2023-04-04T15:49:41.509Z,101695.47
2023-04-04T15:55:03.921Z,101681.60
2023-04-04T16:06:01.369Z,101665.56
2023-04-04T16:11:27.287Z,101678.41
2023-04-04T16:16:49.541Z,101676.42
2023-04-04T16:22:13.514Z,101679.00
2023-04-04T16:27:37.314Z,101679.39
2023-04-04T16:32:59.839Z,101668.76
2023-04-04T16:38:22.210Z,101684.56
2023-04-04T16:43:46.170Z,101681.02
2023-04-04T16:49:09.026Z,101693.33
2023-04-04T16:54:31.373Z,101683.28
2023-04-04T16:59:53.804Z,101681.59
2023-04-04T17:05:16.386Z,101686.00
2023-04-04T17:10:43.164Z,101696.48
2023-04-04T17:16:06.742Z,101691.73
2023-04-04T17:21:29.014Z,101698.50
2023-04-04T17:26:51.822Z,101707.94
2023-04-04T17:32:20.387Z,101706.64
2023-04-04T17:37:42.823Z,101711.34
2023-04-04T17:43:05.168Z,101708.00
2023-04-04T17:48:29.655Z,101718.66
2023-04-04T17:53:52.273Z,101727.58
2023-04-04T17:59:16.213Z,101733.98
2023-04-04T18:04:38.862Z,101730.96
2023-04-04T18:10:01.400Z,101733.19
2023-04-04T18:15:24.717Z,101735.30
2023-04-04T18:20:49.858Z,101740.77
2023-04-04T18:26:13.281Z,101746.55
2023-04-04T18:31:35.687Z,101754.73
2023-04-04T18:36:57.970Z,101753.86
2023-04-04T18:42:21.199Z,101753.82
2023-04-04T18:47:45.328Z,101753.59
2023-04-04T18:53:08.633Z,101759.83
2023-04-04T18:58:32.334Z,101755.64
2023-04-04T19:04:01.614Z,101755.33
2023-04-04T19:09:26.223Z,101753.28
2023-04-04T19:14:48.514Z,101757.97
2023-04-04T19:20:10.910Z,101761.80
2023-04-04T19:25:33.413Z,101757.64
2023-04-04T19:31:02.282Z,101761.33
2023-04-04T19:36:28.121Z,101759.85
2023-04-04T19:41:54.404Z,101757.52
2023-04-04T19:47:17.248Z,101758.59
2023-04-04T19:52:41.683Z,101766.73
2023-04-04T19:58:04.901Z,101757.33
2023-04-04T20:03:46.714Z,101757.44
2023-04-04T20:09:21.905Z,101753.15
2023-04-04T20:14:44.830Z,101748.98
2023-04-04T20:20:07.082Z,101758.04
2023-04-04T20:25:45.582Z,101750.45
2023-04-04T20:31:14.219Z,101750.63
2023-04-04T20:36:43.187Z,101758.66
2023-04-04T20:42:05.476Z,101759.58
2023-04-04T20:47:52.291Z,101759.66
2023-04-04T20:53:16.547Z,101768.47
2023-04-04T20:58:42.164Z,101772.93
2023-04-04T21:04:04.429Z,101761.64
2023-04-04T21:09:26.762Z,101761.67
2023-04-04T21:14:55.012Z,101759.10
2023-04-04T21:20:22.401Z,101760.05
2023-04-04T21:25:53.932Z,101756.56
2023-04-04T21:31:24.301Z,101749.59
2023-04-04T21:36:48.214Z,101754.02
2023-04-04T21:42:12.730Z,101758.41
2023-04-04T21:47:35.085Z,101753.99
2023-04-04T21:52:57.410Z,101752.20
2023-04-04T21:58:19.772Z,101748.68
2023-04-04T22:03:43.945Z,101748.74
2023-04-04T22:09:07.136Z,101746.13
2023-04-04T22:14:30.444Z,101743.48
2023-04-04T22:20:03.328Z,101742.63
2023-04-04T22:25:26.663Z,101740.02
2023-04-04T22:30:50.745Z,101742.70
2023-04-04T22:36:15.411Z,101737.41
2023-04-04T22:41:42.132Z,101736.58
2023-04-04T22:47:06.026Z,101733.08
2023-04-04T22:52:31.000Z,101727.82
2023-04-04T22:57:53.466Z,101724.34
2023-04-04T23:03:17.031Z,101719.98
2023-04-04T23:08:39.272Z,101725.25
2023-04-04T23:14:01.524Z,101722.61
2023-04-04T23:19:23.987Z,101719.11
2023-04-04T23:24:46.642Z,101721.73
2023-04-04T23:30:10.137Z,101714.73
2023-04-04T23:35:32.503Z,101719.98
2023-04-04T23:40:54.824Z,101709.48
2023-04-04T23:46:18.470Z,101697.22
2023-04-04T23:51:42.651Z,101695.47
2023-04-04T23:57:04.931Z,101699.85
